createdAt,value
2023-05-18T00:02:08.623Z,100307.41
2023-05-18T00:04:36.339Z,100303.59
2023-05-18T00:07:04.269Z,100302.02
2023-05-18T00:09:32.723Z,100299.05
2023-05-18T00:12:00.144Z,100303.42
2023-05-18T00:14:27.465Z,100304.82
2023-05-18T00:16:54.889Z,100302.03
2023-05-18T00:19:24.245Z,100300.29
2023-05-18T00:21:52.767Z,100298.01
2023-05-18T00:24:19.657Z,100298.16
2023-05-18T00:26:47.234Z,100299.22
2023-05-18T00:29:14.220Z,100299.37
2023-05-18T00:31:42.401Z,100296.55
2023-05-18T00:34:10.112Z,100293.59
2023-05-18T00:36:37.634Z,100296.70
2023-05-18T00:39:05.085Z,100302.30
2023-05-18T00:41:32.124Z,100295.48
2023-05-18T00:44:00.176Z,100296.19
2023-05-18T00:46:28.175Z,100294.80
2023-05-18T00:48:57.318Z,100295.66
2023-05-18T00:51:24.714Z,100297.74
2023-05-18T00:53:52.812Z,100294.61
2023-05-18T00:56:20.099Z,100296.52
2023-05-18T00:58:48.406Z,100293.04
2023-05-18T01:01:17.994Z,100294.93
2023-05-18T01:03:45.066Z,100291.77
2023-05-18T01:06:13.022Z,100290.89
2023-05-18T01:08:42.036Z,100292.95
2023-05-18T01:11:39.010Z,100291.73
2023-05-18T01:14:20.299Z,100296.09
2023-05-18T01:17:10.594Z,100298.70
2023-05-18T01:19:52.603Z,100302.88
2023-05-18T01:22:44.772Z,100306.87
2023-05-18T01:25:19.511Z,100307.38
2023-05-18T01:27:46.800Z,100305.94
2023-05-18T01:30:16.248Z,100312.16
2023-05-18T01:32:43.479Z,100312.52
2023-05-18T01:35:10.482Z,100315.83
2023-05-18T01:37:37.647Z,100316.02
2023-05-18T01:40:06.053Z,100314.80
2023-05-18T01:42:34.620Z,100316.02
2023-05-18T01:45:04.111Z,100315.65
2023-05-18T01:47:31.777Z,100313.01
2023-05-18T01:50:15.261Z,100319.96
2023-05-18T01:52:58.130Z,100319.09
2023-05-18T01:55:25.308Z,100322.73
2023-05-18T01:57:52.269Z,100323.41
2023-05-18T02:00:19.934Z,100325.27
2023-05-18T02:02:47.423Z,100324.70
2023-05-18T02:05:14.904Z,100328.84
2023-05-18T02:07:44.164Z,100332.48
2023-05-18T02:10:11.985Z,100333.14
2023-05-18T02:12:39.032Z,100335.55
2023-05-18T02:15:07.300Z,100337.28
2023-05-18T02:17:38.255Z,100336.05
2023-05-18T02:20:10.291Z,100336.37
2023-05-18T02:22:37.449Z,100337.79
2023-05-18T02:25:05.793Z,100338.49
2023-05-18T02:27:33.599Z,100339.55
2023-05-18T02:30:00.762Z,100340.58
2023-05-18T02:32:28.198Z,100344.23
2023-05-18T02:34:55.288Z,100344.73
2023-05-18T02:37:23.270Z,100344.77
2023-05-18T02:39:50.812Z,100343.41
2023-05-18T02:42:17.828Z,100346.76
2023-05-18T02:44:44.753Z,100349.40
2023-05-18T02:47:14.348Z,100355.20
2023-05-18T02:49:41.316Z,100351.42
2023-05-18T02:52:09.134Z,100353.36
2023-05-18T02:54:36.409Z,100354.08
2023-05-18T02:57:03.917Z,100354.59
2023-05-18T02:59:43.816Z,100354.92
2023-05-18T03:02:14.460Z,100356.66
2023-05-18T03:04:42.339Z,100358.43
2023-05-18T03:07:10.672Z,100362.30
2023-05-18T03:09:38.210Z,100363.20
2023-05-18T03:12:06.479Z,100363.42
2023-05-18T03:14:34.498Z,100365.55
2023-05-18T03:17:01.829Z,100362.11
2023-05-18T03:19:29.297Z,100363.19
2023-05-18T03:21:58.072Z,100367.39
2023-05-18T03:24:26.769Z,100366.20
2023-05-18T03:26:55.284Z,100367.98
2023-05-18T03:29:22.855Z,100368.17
2023-05-18T03:31:50.364Z,100367.52
2023-05-18T03:34:18.176Z,100371.92
2023-05-18T03:36:47.587Z,100373.88
2023-05-18T03:39:14.983Z,100377.19
2023-05-18T03:41:41.929Z,100377.55
2023-05-18T03:44:09.440Z,100380.87
2023-05-18T03:46:36.811Z,100382.63
2023-05-18T03:49:05.230Z,100379.65
2023-05-18T03:51:36.641Z,100381.04
2023-05-18T03:54:04.092Z,100382.08
2023-05-18T03:56:31.853Z,100382.56
2023-05-18T03:58:59.038Z,100385.49
2023-05-18T04:01:26.292Z,100390.88
2023-05-18T04:03:56.762Z,100387.17
2023-05-18T04:06:26.313Z,100386.06
2023-05-18T04:08:53.674Z,100387.73
2023-05-18T04:11:21.618Z,100388.89
2023-05-18T04:13:50.061Z,100391.41
2023-05-18T04:16:17.204Z,100389.39
2023-05-18T04:18:44.514Z,100385.60
2023-05-18T04:21:11.911Z,100382.31
2023-05-18T04:23:39.213Z,100387.41
2023-05-18T04:26:06.960Z,100381.46
2023-05-18T04:28:34.072Z,100382.64
2023-05-18T04:31:01.898Z,100379.39
2023-05-18T04:33:29.671Z,100374.05
2023-05-18T04:35:58.870Z,100377.08
2023-05-18T04:38:26.219Z,100372.58
2023-05-18T04:40:54.041Z,100375.41
2023-05-18T04:43:21.357Z,100373.11
2023-05-18T04:45:50.881Z,100373.78
2023-05-18T04:48:19.322Z,100368.80
2023-05-18T04:50:47.220Z,100366.28
2023-05-18T04:53:18.204Z,100367.41
2023-05-18T04:55:46.292Z,100369.32
2023-05-18T04:58:13.480Z,100368.42
2023-05-18T05:00:40.445Z,100370.98
2023-05-18T05:03:07.564Z,100367.92
2023-05-18T05:05:35.097Z,100366.40
2023-05-18T05:08:02.282Z,100366.45
2023-05-18T05:10:29.977Z,100364.80
2023-05-18T05:12:57.018Z,100359.11
2023-05-18T05:15:24.571Z,100358.36
2023-05-18T05:17:51.827Z,100360.10
2023-05-18T05:20:19.015Z,100361.08
2023-05-18T05:22:46.162Z,100358.16
2023-05-18T05:25:17.021Z,100358.98
2023-05-18T05:27:44.868Z,100360.80
2023-05-18T05:30:13.272Z,100357.67
2023-05-18T05:32:43.352Z,100355.41
2023-05-18T05:35:22.432Z,100357.89
2023-05-18T05:38:24.107Z,100352.79
2023-05-18T05:41:11.975Z,100351.38
2023-05-18T05:43:40.366Z,100352.15
2023-05-18T05:47:02.570Z,100348.51
2023-05-18T05:49:46.460Z,100350.95
2023-05-18T05:52:29.270Z,100349.33
2023-05-18T05:55:28.608Z,100348.77
2023-05-18T05:58:40.231Z,100352.23
2023-05-18T06:01:32.562Z,100348.70
2023-05-18T06:04:13.096Z,100350.16
2023-05-18T06:06:40.129Z,100349.73
2023-05-18T06:09:08.168Z,100345.96
2023-05-18T06:11:37.260Z,100343.98
2023-05-18T06:14:21.651Z,100346.05
2023-05-18T06:17:10.350Z,100344.14
2023-05-18T06:24:57.532Z,100342.86
2023-05-18T06:36:19.952Z,100344.87
2023-05-18T06:39:30.968Z,100343.00
2023-05-18T06:42:12.840Z,100341.73
2023-05-18T06:44:52.869Z,100338.55
2023-05-18T06:47:27.387Z,100343.30
2023-05-18T06:49:55.926Z,100344.18
2023-05-18T06:52:29.473Z,100345.77
2023-05-18T06:55:01.400Z,100348.95
2023-05-18T06:57:29.253Z,100347.02
2023-05-18T06:59:57.160Z,100352.80
2023-05-18T07:02:25.780Z,100349.25
2023-05-18T07:04:53.205Z,100347.61
2023-05-18T07:07:20.715Z,100350.89
2023-05-18T07:09:50.015Z,100346.92
2023-05-18T07:12:17.957Z,100351.95
2023-05-18T07:14:45.248Z,100354.71
2023-05-18T07:17:12.210Z,100356.66
2023-05-18T07:19:45.317Z,100359.11
2023-05-18T07:22:12.340Z,100362.34
2023-05-18T07:24:39.282Z,100357.13
2023-05-18T07:27:06.328Z,100352.67
2023-05-18T07:29:34.353Z,100356.19
2023-05-18T07:32:01.643Z,100358.69
2023-05-18T07:34:28.610Z,100363.99
2023-05-18T07:36:56.340Z,100362.70
2023-05-18T07:39:28.695Z,100361.12
2023-05-18T07:41:56.052Z,100356.12
2023-05-18T07:44:27.730Z,100356.05
2023-05-18T07:46:56.705Z,100355.76
2023-05-18T07:49:23.853Z,100358.36
2023-05-18T07:51:59.740Z,100357.66
2023-05-18T07:54:30.970Z,100359.73
2023-05-18T07:57:01.003Z,100359.39
2023-05-18T07:59:31.291Z,100355.04
2023-05-18T08:02:02.601Z,100356.38
2023-05-18T08:04:31.978Z,100356.79
2023-05-18T08:07:18.122Z,100355.48
2023-05-18T08:14:12.038Z,100348.64
2023-05-18T08:17:05.675Z,100342.41
2023-05-18T08:24:01.222Z,100341.61
2023-05-18T08:26:47.626Z,100335.73
2023-05-18T08:29:16.284Z,100334.20
2023-05-18T08:32:26.558Z,100334.67
2023-05-18T08:35:44.509Z,100330.70
2023-05-18T08:39:06.633Z,100334.55
2023-05-18T08:42:50.745Z,100331.59
2023-05-18T08:45:39.933Z,100333.45
2023-05-18T08:48:29.578Z,100325.39
2023-05-18T08:54:27.159Z,100326.70
2023-05-18T08:57:25.716Z,100327.27
2023-05-18T09:10:36.084Z,100315.59
2023-05-18T09:13:25.914Z,100311.02
2023-05-18T09:16:52.503Z,100304.46
2023-05-18T09:20:28.545Z,100301.43
2023-05-18T09:23:36.844Z,100304.70
2023-05-18T09:26:38.118Z,100298.16
2023-05-18T09:30:34.563Z,100296.44
2023-05-18T09:33:18.590Z,100294.87
2023-05-18T09:35:47.838Z,100286.10
2023-05-18T09:38:28.477Z,100288.30
2023-05-18T09:41:21.992Z,100284.17
2023-05-18T09:44:28.613Z,100283.00
2023-05-18T09:47:54.553Z,100286.44
2023-05-18T09:50:35.341Z,100278.95
2023-05-18T09:53:03.608Z,100280.98
2023-05-18T09:55:31.016Z,100281.95
2023-05-18T09:57:58.410Z,100275.49
2023-05-18T10:00:27.403Z,100275.14
2023-05-18T10:02:56.600Z,100269.87
2023-05-18T10:05:27.355Z,100264.52
2023-05-18T10:07:58.413Z,100261.03
2023-05-18T10:10:37.221Z,100256.59
2023-05-18T10:13:05.176Z,100255.84
2023-05-18T10:15:33.554Z,100262.89
2023-05-18T10:18:00.991Z,100254.63
2023-05-18T10:20:28.550Z,100254.90
2023-05-18T10:22:56.249Z,100253.65
2023-05-18T10:25:24.038Z,100252.31
2023-05-18T10:27:51.859Z,100252.29
2023-05-18T10:30:19.002Z,100254.07
2023-05-18T10:32:46.404Z,100254.84
2023-05-18T10:35:14.203Z,100250.97
2023-05-18T10:37:44.430Z,100253.15
2023-05-18T10:40:12.870Z,100250.97
2023-05-18T10:42:40.034Z,100250.86
2023-05-18T10:45:07.714Z,100258.30
2023-05-18T10:47:36.385Z,100255.77
2023-05-18T10:50:03.606Z,100253.89
2023-05-18T10:52:31.975Z,100251.13
2023-05-18T10:55:00.654Z,100246.35
2023-05-18T10:57:35.442Z,100250.27
2023-05-18T11:00:09.522Z,100252.73
2023-05-18T11:02:40.305Z,100256.02
2023-05-18T11:05:07.796Z,100250.52
2023-05-18T11:07:35.051Z,100251.55
2023-05-18T11:10:03.081Z,100249.00
2023-05-18T11:12:33.040Z,100246.59
2023-05-18T11:15:01.100Z,100249.94
2023-05-18T11:17:31.319Z,100248.68
2023-05-18T11:20:11.938Z,100243.90
2023-05-18T11:22:45.853Z,100235.69
2023-05-18T11:25:28.352Z,100235.77
2023-05-18T11:27:55.979Z,100236.41
2023-05-18T11:30:40.442Z,100237.10
2023-05-18T11:33:28.204Z,100232.42
2023-05-18T11:36:15.136Z,100236.83
2023-05-18T11:39:04.918Z,100236.91
2023-05-18T11:41:35.708Z,100240.52
2023-05-18T11:44:11.821Z,100236.19
2023-05-18T11:46:54.304Z,100230.82
2023-05-18T11:49:23.636Z,100228.05
2023-05-18T11:52:04.462Z,100231.98
2023-05-18T11:54:43.518Z,100232.98
2023-05-18T11:57:11.112Z,100231.02
2023-05-18T11:59:39.783Z,100229.27
2023-05-18T12:02:06.771Z,100228.55
2023-05-18T12:04:34.312Z,100227.16
2023-05-18T12:07:04.806Z,100227.46
2023-05-18T12:09:32.206Z,100222.50
2023-05-18T12:11:59.199Z,100228.21
2023-05-18T12:14:26.126Z,100224.23
2023-05-18T12:16:53.191Z,100222.48
2023-05-18T12:19:20.422Z,100227.52
2023-05-18T12:21:47.716Z,100225.64
2023-05-18T12:24:15.294Z,100226.59
2023-05-18T12:26:42.466Z,100225.86
2023-05-18T12:29:11.441Z,100226.87
2023-05-18T12:31:41.306Z,100224.30
2023-05-18T12:34:09.777Z,100223.52
2023-05-18T12:36:41.835Z,100223.35
2023-05-18T12:39:09.159Z,100221.80
2023-05-18T12:41:36.153Z,100221.63
2023-05-18T12:44:04.867Z,100223.02
2023-05-18T12:46:32.037Z,100225.83
2023-05-18T12:49:01.603Z,100219.92
2023-05-18T12:51:39.007Z,100217.18
2023-05-18T12:54:06.854Z,100213.53
2023-05-18T12:56:53.213Z,100213.23
2023-05-18T12:59:20.223Z,100208.02
2023-05-18T13:01:47.340Z,100212.08
2023-05-18T13:04:14.487Z,100215.95
2023-05-18T13:06:42.231Z,100220.03
2023-05-18T13:09:12.438Z,100221.65
2023-05-18T13:11:39.550Z,100221.21
2023-05-18T13:14:07.870Z,100221.88
2023-05-18T13:16:37.421Z,100220.02
2023-05-18T13:19:07.048Z,100221.08
2023-05-18T13:21:34.700Z,100219.05
2023-05-18T13:24:02.643Z,100216.70
2023-05-18T13:26:29.568Z,100218.27
